sensor_id;sensor_type;location;lat;lon;timestamp;P1;durP1;ratioP1;P2;durP2;ratioP2
42518;SDS011;28147;47.520;18.920;2023-02-07T08:05:53;15.90;;;7.32;;
42518;SDS011;28147;47.520;18.920;2023-02-07T08:08:19;13.52;;;7.30;;
42518;SDS011;28147;47.520;18.920;2023-02-07T08:10:45;15.63;;;6.93;;
42518;SDS011;28147;47.520;18.920;2023-02-07T08:13:11;13.98;;;6.90;;
42518;SDS011;28147;47.520;18.920;2023-02-07T08:15:37;17.73;;;8.70;;
42518;SDS011;28147;47.520;18.920;2023-02-07T08:18:03;16.20;;;7.85;;
42518;SDS011;28147;47.520;18.920;2023-02-07T08:20:29;21.67;;;10.02;;
42518;SDS011;28147;47.520;18.920;2023-02-07T08:22:55;19.95;;;9.48;;
42518;SDS011;28147;47.520;18.920;2023-02-07T08:25:22;17.17;;;8.85;;
42518;SDS011;28147;47.520;18.920;2023-02-07T08:27:47;19.17;;;9.50;;
42518;SDS011;28147;47.520;18.920;2023-02-07T08:30:13;15.90;;;7.38;;
42518;SDS011;28147;47.520;18.920;2023-02-07T08:32:40;16.73;;;7.68;;
42518;SDS011;28147;47.520;18.920;2023-02-07T08:35:06;14.07;;;6.78;;
42518;SDS011;28147;47.520;18.920;2023-02-07T08:37:33;15.45;;;7.63;;
42518;SDS011;28147;47.520;18.920;2023-02-07T08:39:58;15.00;;;7.00;;
42518;SDS011;28147;47.520;18.920;2023-02-07T08:42:24;13.65;;;6.18;;
42518;SDS011;28147;47.520;18.920;2023-02-07T08:44:50;15.85;;;7.13;;
42518;SDS011;28147;47.520;18.920;2023-02-07T08:47:16;15.23;;;6.63;;
42518;SDS011;28147;47.520;18.920;2023-02-07T08:49:42;14.43;;;6.53;;
42518;SDS011;28147;47.520;18.920;2023-02-07T08:52:08;14.27;;;6.45;;
42518;SDS011;28147;47.520;18.920;2023-02-07T08:54:34;12.45;;;5.93;;
42518;SDS011;28147;47.520;18.920;2023-02-07T08:57:00;15.27;;;7.03;;
42518;SDS011;28147;47.520;18.920;2023-02-07T08:59:26;12.55;;;6.38;;
42518;SDS011;28147;47.520;18.920;2023-02-07T09:01:51;11.80;;;6.13;;
42518;SDS011;28147;47.520;18.920;2023-02-07T09:04:16;14.25;;;5.95;;
42518;SDS011;28147;47.520;18.920;2023-02-07T09:06:42;16.38;;;7.72;;
42518;SDS011;28147;47.520;18.920;2023-02-07T09:09:07;15.68;;;7.25;;
42518;SDS011;28147;47.520;18.920;2023-02-07T09:11:34;17.00;;;7.70;;
42518;SDS011;28147;47.520;18.920;2023-02-07T09:14:02;15.18;;;7.20;;
42518;SDS011;28147;47.520;18.920;2023-02-07T09:16:28;16.30;;;7.68;;
42518;SDS011;28147;47.520;18.920;2023-02-07T09:18:54;15.80;;;7.45;;
42518;SDS011;28147;47.520;18.920;2023-02-07T09:21:20;18.50;;;8.13;;
42518;SDS011;28147;47.520;18.920;2023-02-07T09:23:46;14.02;;;7.03;;
42518;SDS011;28147;47.520;18.920;2023-02-07T09:26:21;14.52;;;6.57;;
42518;SDS011;28147;47.520;18.920;2023-02-07T09:28:47;15.93;;;7.10;;
42518;SDS011;28147;47.520;18.920;2023-02-07T09:31:13;16.83;;;7.13;;
42518;SDS011;28147;47.520;18.920;2023-02-07T09:33:40;17.20;;;7.50;;
42518;SDS011;28147;47.520;18.920;2023-02-07T09:36:20;15.05;;;7.68;;
42518;SDS011;28147;47.520;18.920;2023-02-07T09:38:47;18.30;;;7.90;;
42518;SDS011;28147;47.520;18.920;2023-02-07T09:41:15;16.48;;;8.48;;
42518;SDS011;28147;47.520;18.920;2023-02-07T09:43:55;16.75;;;6.78;;
42518;SDS011;28147;47.520;18.920;2023-02-07T09:46:35;12.52;;;7.50;;
42518;SDS011;28147;47.520;18.920;2023-02-07T09:57:07;11.48;;;6.07;;
42518;SDS011;28147;47.520;18.920;2023-02-07T09:59:40;14.98;;;8.23;;
42518;SDS011;28147;47.520;18.920;2023-02-07T10:02:15;16.98;;;7.47;;
42518;SDS011;28147;47.520;18.920;2023-02-07T10:04:46;16.80;;;7.82;;
42518;SDS011;28147;47.520;18.920;2023-02-07T10:07:16;12.77;;;6.40;;
42518;SDS011;28147;47.520;18.920;2023-02-07T10:09:42;13.82;;;7.20;;
42518;SDS011;28147;47.520;18.920;2023-02-07T10:15:06;14.48;;;6.95;;
42518;SDS011;28147;47.520;18.920;2023-02-07T10:31:25;15.20;;;6.93;;
42518;SDS011;28147;47.520;18.920;2023-02-07T10:36:58;14.27;;;7.00;;
42518;SDS011;28147;47.520;18.920;2023-02-07T10:39:32;14.98;;;7.30;;
42518;SDS011;28147;47.520;18.920;2023-02-07T10:41:58;14.02;;;7.40;;
42518;SDS011;28147;47.520;18.920;2023-02-07T10:44:24;20.25;;;8.70;;
42518;SDS011;28147;47.520;18.920;2023-02-07T10:49:32;19.25;;;8.68;;
42518;SDS011;28147;47.520;18.920;2023-02-07T10:57:21;19.02;;;8.60;;
42518;SDS011;28147;47.520;18.920;2023-02-07T10:59:47;18.85;;;8.43;;
42518;SDS011;28147;47.520;18.920;2023-02-07T11:04:55;19.90;;;9.77;;
42518;SDS011;28147;47.520;18.920;2023-02-07T11:07:23;17.25;;;8.70;;
42518;SDS011;28147;47.520;18.920;2023-02-07T11:09:50;20.35;;;8.98;;
42518;SDS011;28147;47.520;18.920;2023-02-07T11:12:19;16.90;;;8.90;;
42518;SDS011;28147;47.520;18.920;2023-02-07T11:17:19;20.98;;;10.00;;
42518;SDS011;28147;47.520;18.920;2023-02-07T11:19:45;16.80;;;9.02;;
42518;SDS011;28147;47.520;18.920;2023-02-07T11:22:18;17.23;;;8.60;;
42518;SDS011;28147;47.520;18.920;2023-02-07T11:26:34;18.65;;;8.90;;
42518;SDS011;28147;47.520;18.920;2023-02-07T11:29:12;20.15;;;9.07;;
42518;SDS011;28147;47.520;18.920;2023-02-07T11:35:25;14.07;;;7.82;;
42518;SDS011;28147;47.520;18.920;2023-02-07T11:44:31;19.95;;;9.05;;
42518;SDS011;28147;47.520;18.920;2023-02-07T11:46:57;19.52;;;8.82;;
42518;SDS011;28147;47.520;18.920;2023-02-07T11:52:47;21.38;;;8.88;;
42518;SDS011;28147;47.520;18.920;2023-02-07T11:55:20;18.42;;;9.65;;
42518;SDS011;28147;47.520;18.920;2023-02-07T11:57:47;20.52;;;8.80;;
42518;SDS011;28147;47.520;18.920;2023-02-07T12:03:25;19.30;;;9.73;;
42518;SDS011;28147;47.520;18.920;2023-02-07T12:10:20;19.38;;;8.45;;
42518;SDS011;28147;47.520;18.920;2023-02-07T12:26:41;21.42;;;10.05;;
42518;SDS011;28147;47.520;18.920;2023-02-07T12:44:59;17.20;;;9.18;;
42518;SDS011;28147;47.520;18.920;2023-02-07T12:50:12;20.45;;;8.88;;
42518;SDS011;28147;47.520;18.920;2023-02-07T13:19:21;22.52;;;10.52;;
42518;SDS011;28147;47.520;18.920;2023-02-07T13:22:55;17.90;;;9.63;;
42518;SDS011;28147;47.520;18.920;2023-02-07T13:27:12;21.35;;;8.68;;
42518;SDS011;28147;47.520;18.920;2023-02-07T13:34:11;24.02;;;9.75;;
42518;SDS011;28147;47.520;18.920;2023-02-07T13:37:48;20.67;;;10.52;;
42518;SDS011;28147;47.520;18.920;2023-02-07T14:04:19;21.30;;;10.15;;
42518;SDS011;28147;47.520;18.920;2023-02-07T14:35:35;19.63;;;10.13;;
42518;SDS011;28147;47.520;18.920;2023-02-07T14:46:53;21.15;;;9.35;;
42518;SDS011;28147;47.520;18.920;2023-02-07T23:00:42;27.98;;;14.23;;
42518;SDS011;28147;47.520;18.920;2023-02-07T23:03:08;26.83;;;14.20;;
